Time;durP1;ratioP1;P1;durP2;ratioP2;P2;SDS_P1;SDS_P2;PMS_P1;PMS_P2;Temp;Humidity;BMP_temperature;BMP_pressure;BME280_temperature;BME280_humidity;BME280_pressure;Samples;Min_cycle;Max_cycle;Signal;HPM_P1;HPM_P2
2023/09/17 00:00:37;;;;;;;;;;;22.60;56.80;;;;;;5099539;28;19950;-59
2023/09/17 00:03:04;;;;;;;;;;;22.60;56.80;;;;;;5082395;28;19924;-59
2023/09/17 00:05:33;;;;;;;;;;;22.60;56.80;;;;;;5082600;28;19986;-60
2023/09/17 00:08:00;;;;;;;;;;;22.60;56.80;;;;;;5079717;28;19931;-59
2023/09/17 00:10:27;;;;;;;;;;;22.60;56.80;;;;;;5082048;28;19970;-60
2023/09/17 00:12:55;;;;;;;;;;;22.60;56.80;;;;;;5086839;28;19924;-59
2023/09/17 00:15:21;;;;;;;;;;;22.60;56.80;;;;;;5087092;28;19924;-60
2023/09/17 00:17:48;;;;;;;;;;;22.60;56.80;;;;;;5079767;28;19924;-59
2023/09/17 00:20:15;;;;;;;;;;;22.60;56.80;;;;;;5078984;28;19944;-59
2023/09/17 00:22:43;;;;;;;;;;;22.60;56.80;;;;;;5101900;28;19944;-59
2023/09/17 00:25:10;;;;;;;;;;;22.60;56.80;;;;;;5097276;28;19928;-59
2023/09/17 00:27:39;;;;;;;;;;;22.60;56.70;;;;;;5070206;28;19957;-60
2023/09/17 00:30:07;;;;;;;;;;;22.60;56.70;;;;;;5089364;28;19931;-60
2023/09/17 00:32:34;;;;;;;;;;;22.60;56.80;;;;;;5076485;28;19928;-59
2023/09/17 00:35:00;;;;;;;;;;;22.50;56.70;;;;;;5080928;28;20007;-59
2023/09/17 00:37:27;;;;;;;;;;;22.60;56.70;;;;;;5081548;28;20324;-59
2023/09/17 00:39:58;;;;;;;;;;;22.60;56.70;;;;;;5087810;28;19924;-60
2023/09/17 00:42:25;;;;;;;;;;;22.60;56.80;;;;;;5087524;28;20007;-60
2023/09/17 00:44:52;;;;;;;;;;;22.60;56.80;;;;;;5083036;28;19930;-59
2023/09/17 00:47:18;;;;;;;;;;;22.60;56.70;;;;;;5078533;28;19981;-59
2023/09/17 00:49:45;;;;;;;;;;;22.60;56.80;;;;;;5078653;28;19928;-59
2023/09/17 00:52:14;;;;;;;;;;;22.60;56.70;;;;;;5083752;28;19988;-59
2023/09/17 00:54:41;;;;;;;;;;;22.50;56.70;;;;;;5078101;28;19928;-60
2023/09/17 00:57:09;;;;;;;;;;;22.60;56.70;;;;;;5088214;28;19928;-59
2023/09/17 00:59:37;;;;;;;;;;;22.60;56.70;;;;;;5064975;28;19931;-59
2023/09/17 01:02:04;;;;;;;;;;;22.60;56.70;;;;;;5073178;28;20311;-60
2023/09/17 01:04:31;;;;;;;;;;;22.50;56.60;;;;;;5077508;28;19924;-59
2023/09/17 01:06:59;;;;;;;;;;;22.60;56.70;;;;;;5095058;28;20422;-59
2023/09/17 01:09:27;;;;;;;;;;;22.50;56.60;;;;;;5064856;28;20260;-59
2023/09/17 01:11:53;;;;;;;;;;;22.50;56.60;;;;;;5065040;28;20022;-60
2023/09/17 01:14:22;;;;;;;;;;;22.50;56.60;;;;;;5095098;28;19924;-59
2023/09/17 01:16:49;;;;;;;;;;;22.50;56.60;;;;;;5067955;28;19924;-59
2023/09/17 01:19:17;;;;;;;;;;;22.50;56.60;;;;;;5068588;28;19932;-59
2023/09/17 01:21:46;;;;;;;;;;;22.50;56.60;;;;;;5074778;28;19931;-60
2023/09/17 01:24:15;;;;;;;;;;;22.50;56.60;;;;;;5057763;28;19936;-59
2023/09/17 01:26:42;;;;;;;;;;;22.50;56.60;;;;;;5062849;28;19924;-60
2023/09/17 01:29:10;;;;;;;;;;;22.50;56.60;;;;;;5084383;28;19924;-60
2023/09/17 01:31:37;;;;;;;;;;;22.50;56.50;;;;;;5063263;28;19924;-60
2023/09/17 01:34:04;;;;;;;;;;;22.50;56.60;;;;;;5065900;28;19924;-59
2023/09/17 01:36:33;;;;;;;;;;;22.50;56.50;;;;;;5075634;28;19928;-59
2023/09/17 01:39:00;;;;;;;;;;;22.50;56.50;;;;;;5085472;28;19930;-59
2023/09/17 01:41:27;;;;;;;;;;;22.50;56.50;;;;;;5056347;28;19931;-59
2023/09/17 01:43:54;;;;;;;;;;;22.50;56.50;;;;;;5090313;28;19985;-59
2023/09/17 01:46:22;;;;;;;;;;;22.50;56.50;;;;;;5067655;28;19931;-59
2023/09/17 01:48:49;;;;;;;;;;;22.50;56.50;;;;;;5064463;28;19920;-60
2023/09/17 01:51:16;;;;;;;;;;;22.50;56.50;;;;;;5071313;28;20023;-59
2023/09/17 01:53:43;;;;;;;;;;;22.50;56.50;;;;;;5055567;28;19929;-59
2023/09/17 01:56:09;;;;;;;;;;;22.50;56.50;;;;;;5055024;28;19928;-59
2023/09/17 01:58:36;;;;;;;;;;;22.50;56.50;;;;;;5067814;28;19931;-59
2023/09/17 02:01:03;;;;;;;;;;;22.50;56.50;;;;;;5080385;28;19920;-60
2023/09/17 02:03:32;;;;;;;;;;;22.50;56.50;;;;;;5084585;28;19924;-59
2023/09/17 02:05:59;;;;;;;;;;;22.50;56.50;;;;;;5091556;28;19934;-60
2023/09/17 02:08:25;;;;;;;;;;;22.50;56.50;;;;;;5071807;28;19989;-60
2023/09/17 02:10:52;;;;;;;;;;;22.50;56.50;;;;;;5088663;28;20011;-58
2023/09/17 02:13:19;;;;;;;;;;;22.50;56.50;;;;;;5098678;28;19924;-59
2023/09/17 02:15:46;;;;;;;;;;;22.50;56.50;;;;;;5076231;28;20631;-60
2023/09/17 02:18:12;;;;;;;;;;;22.50;56.50;;;;;;5072312;28;19935;-60
2023/09/17 02:20:40;;;;;;;;;;;22.50;56.50;;;;;;5105188;28;19986;-60
2023/09/17 02:23:09;;;;;;;;;;;22.50;56.50;;;;;;5079801;28;19924;-60
2023/09/17 02:25:36;;;;;;;;;;;22.50;56.50;;;;;;5071589;28;19932;-60
2023/09/17 02:28:03;;;;;;;;;;;22.50;56.50;;;;;;5097838;28;19931;-59
2023/09/17 02:30:29;;;;;;;;;;;22.40;56.30;;;;;;5078593;28;19928;-60
2023/09/17 02:32:56;;;;;;;;;;;22.40;56.30;;;;;;5096427;28;19959;-59
2023/09/17 02:35:23;;;;;;;;;;;22.40;56.40;;;;;;5088748;28;20383;-60
2023/09/17 02:37:51;;;;;;;;;;;22.40;56.30;;;;;;5078798;28;19924;-60
2023/09/17 02:40:18;;;;;;;;;;;22.40;56.30;;;;;;5091791;28;19924;-59
2023/09/17 02:42:44;;;;;;;;;;;22.40;56.30;;;;;;5102998;28;20149;-60
2023/09/17 02:45:11;;;;;;;;;;;22.40;56.30;;;;;;5100654;28;19930;-60
2023/09/17 02:47:40;;;;;;;;;;;22.40;56.30;;;;;;5100703;28;19924;-60
2023/09/17 02:50:07;;;;;;;;;;;22.40;56.30;;;;;;5090676;28;20016;-60
2023/09/17 02:52:34;;;;;;;;;;;22.40;56.30;;;;;;5074994;28;19924;-60
2023/09/17 02:55:04;;;;;;;;;;;22.40;56.30;;;;;;5081515;28;19928;-60
2023/09/17 02:57:31;;;;;;;;;;;22.40;56.20;;;;;;5097129;28;19924;-60
2023/09/17 02:59:57;;;;;;;;;;;22.40;56.30;;;;;;5091210;28;19978;-59
2023/09/17 03:02:24;;;;;;;;;;;22.40;56.20;;;;;;5078326;28;19954;-60
2023/09/17 03:04:52;;;;;;;;;;;22.40;56.20;;;;;;5071688;28;20386;-59
2023/09/17 03:07:19;;;;;;;;;;;22.40;56.20;;;;;;5087638;28;19931;-59
2023/09/17 03:09:46;;;;;;;;;;;22.40;56.20;;;;;;5087318;28;19928;-60
2023/09/17 03:12:14;;;;;;;;;;;22.40;56.20;;;;;;5102424;28;19935;-60
2023/09/17 03:14:41;;;;;;;;;;;22.40;56.20;;;;;;5076011;28;19939;-59
2023/09/17 03:17:08;;;;;;;;;;;22.40;56.20;;;;;;5070716;28;19924;-59
2023/09/17 03:19:34;;;;;;;;;;;22.40;56.10;;;;;;5079353;28;19924;-60
2023/09/17 03:22:02;;;;;;;;;;;22.40;56.20;;;;;;5087977;28;20361;-59
2023/09/17 03:24:29;;;;;;;;;;;22.40;56.10;;;;;;5092045;28;20360;-59
2023/09/17 03:26:55;;;;;;;;;;;22.40;56.10;;;;;;5104949;28;19983;-60
2023/09/17 03:29:24;;;;;;;;;;;22.40;56.10;;;;;;5079615;28;20600;-60
2023/09/17 03:31:51;;;;;;;;;;;22.40;56.10;;;;;;5070778;28;19924;-59
2023/09/17 03:34:17;;;;;;;;;;;22.40;56.10;;;;;;5096616;28;19924;-59
2023/09/17 03:36:44;;;;;;;;;;;22.40;56.10;;;;;;5079180;28;19928;-59
2023/09/17 03:39:12;;;;;;;;;;;22.40;56.10;;;;;;5079163;28;19931;-60
2023/09/17 03:41:40;;;;;;;;;;;22.30;56.00;;;;;;5079069;28;20019;-60
2023/09/17 03:44:07;;;;;;;;;;;22.40;56.70;;;;;;5075834;28;19939;-59
2023/09/17 03:46:36;;;;;;;;;;;22.40;56.10;;;;;;5099174;28;20396;-59
2023/09/17 03:49:03;;;;;;;;;;;22.40;56.10;;;;;;5076877;28;19980;-60
2023/09/17 03:51:30;;;;;;;;;;;22.30;56.00;;;;;;5078239;28;19924;-59
2023/09/17 03:53:57;;;;;;;;;;;22.40;56.10;;;;;;5104131;28;19932;-60
2023/09/17 03:56:24;;;;;;;;;;;22.40;56.10;;;;;;5082347;28;19981;-59
2023/09/17 03:58:51;;;;;;;;;;;22.30;56.10;;;;;;5088444;28;19924;-60
2023/09/17 04:01:18;;;;;;;;;;;22.40;56.10;;;;;;5082929;28;20292;-60
2023/09/17 04:03:49;;;;;;;;;;;22.40;56.10;;;;;;5071622;28;22096;-60
2023/09/17 04:06:16;;;;;;;;;;;22.40;56.10;;;;;;5090403;28;20390;-60
2023/09/17 04:08:42;;;;;;;;;;;22.40;56.10;;;;;;5099923;28;19928;-60
2023/09/17 04:11:15;;;;;;;;;;;22.30;56.10;;;;;;5098107;28;19924;-59
2023/09/17 04:13:42;;;;;;;;;;;22.40;56.10;;;;;;5082671;28;19924;-59
2023/09/17 04:16:09;;;;;;;;;;;22.40;56.10;;;;;;5090808;28;20188;-60
2023/09/17 04:18:36;;;;;;;;;;;22.40;56.10;;;;;;5081690;28;20022;-60
2023/09/17 04:21:04;;;;;;;;;;;22.40;56.20;;;;;;5090811;28;19928;-60
2023/09/17 04:23:31;;;;;;;;;;;22.40;56.20;;;;;;5085048;28;19928;-59
2023/09/17 04:25:58;;;;;;;;;;;22.40;56.20;;;;;;5103652;28;19925;-60
2023/09/17 04:28:25;;;;;;;;;;;22.40;56.20;;;;;;5075540;28;19974;-60
2023/09/17 04:30:51;;;;;;;;;;;22.40;56.20;;;;;;5076422;28;19924;-60
2023/09/17 04:33:19;;;;;;;;;;;22.40;56.20;;;;;;5081805;28;19924;-60
2023/09/17 04:35:46;;;;;;;;;;;22.40;56.20;;;;;;5083182;28;19952;-60
2023/09/17 04:38:14;;;;;;;;;;;22.40;56.30;;;;;;5073049;28;19928;-60
2023/09/17 04:40:41;;;;;;;;;;;22.30;56.20;;;;;;5092634;28;19928;-60
2023/09/17 04:43:08;;;;;;;;;;;22.30;56.20;;;;;;5080571;28;20418;-57
2023/09/17 04:45:35;;;;;;;;;;;22.40;56.20;;;;;;5082479;28;19973;-59
2023/09/17 04:48:02;;;;;;;;;;;22.40;56.20;;;;;;5071915;28;19974;-60
2023/09/17 04:50:29;;;;;;;;;;;22.30;56.20;;;;;;5069510;28;19971;-60
2023/09/17 04:52:56;;;;;;;;;;;22.30;56.20;;;;;;5085599;28;19924;-60
2023/09/17 04:55:24;;;;;;;;;;;22.40;56.30;;;;;;5069350;28;19971;-60
2023/09/17 04:57:52;;;;;;;;;;;22.40;56.30;;;;;;5085607;28;20293;-59
2023/09/17 05:00:20;;;;;;;;;;;22.40;56.20;;;;;;5067830;28;19924;-60
2023/09/17 05:02:47;;;;;;;;;;;22.40;56.30;;;;;;5074042;28;19936;-60
2023/09/17 05:05:17;;;;;;;;;;;22.40;56.20;;;;;;5077299;28;19924;-60
2023/09/17 05:07:44;;;;;;;;;;;22.40;56.30;;;;;;5088465;28;20440;-60
2023/09/17 05:10:10;;;;;;;;;;;22.40;56.30;;;;;;5071366;28;19928;-60
2023/09/17 05:12:38;;;;;;;;;;;22.30;56.20;;;;;;5084259;28;19936;-60
2023/09/17 05:15:05;;;;;;;;;;;22.40;56.30;;;;;;5070499;28;19924;-60
2023/09/17 05:17:32;;;;;;;;;;;22.40;56.30;;;;;;5077167;28;19935;-59
2023/09/17 05:19:59;;;;;;;;;;;22.40;56.30;;;;;;5070780;28;19993;-60
2023/09/17 05:22:26;;;;;;;;;;;22.40;56.30;;;;;;5084787;28;19990;-60
2023/09/17 05:24:52;;;;;;;;;;;22.30;56.20;;;;;;5085398;28;19932;-59
2023/09/17 05:27:20;;;;;;;;;;;22.40;56.30;;;;;;5089332;28;19981;-60
2023/09/17 05:29:48;;;;;;;;;;;22.40;56.30;;;;;;5097811;28;20362;-60
2023/09/17 05:32:15;;;;;;;;;;;22.30;56.30;;;;;;5076898;28;20270;-60
2023/09/17 05:34:44;;;;;;;;;;;22.40;56.30;;;;;;5068779;28;19928;-59
2023/09/17 05:37:10;;;;;;;;;;;22.40;56.30;;;;;;5096813;28;19970;-59
2023/09/17 05:39:37;;;;;;;;;;;22.40;56.30;;;;;;5079084;28;20000;-60
2023/09/17 05:42:04;;;;;;;;;;;22.40;56.30;;;;;;5069283;28;19928;-59
2023/09/17 05:44:31;;;;;;;;;;;22.40;56.40;;;;;;5078761;28;19928;-59
2023/09/17 05:46:59;;;;;;;;;;;22.40;56.40;;;;;;5070835;28;19932;-59
2023/09/17 05:49:26;;;;;;;;;;;22.30;56.30;;;;;;5081556;28;19925;-59
2023/09/17 05:51:53;;;;;;;;;;;22.30;56.30;;;;;;5081944;28;19924;-60
2023/09/17 05:54:21;;;;;;;;;;;22.40;56.40;;;;;;5086495;28;19932;-60
2023/09/17 05:56:48;;;;;;;;;;;22.30;56.30;;;;;;5085641;28;19932;-59
2023/09/17 05:59:15;;;;;;;;;;;22.40;56.30;;;;;;5077725;28;20396;-59
2023/09/17 06:01:41;;;;;;;;;;;22.40;56.30;;;;;;5061652;28;19924;-60
2023/09/17 06:04:10;;;;;;;;;;;22.40;56.30;;;;;;5057699;28;19977;-59
2023/09/17 06:06:36;;;;;;;;;;;22.40;56.30;;;;;;5070988;28;19927;-59
2023/09/17 06:09:03;;;;;;;;;;;22.40;56.30;;;;;;5056129;28;19954;-60
2023/09/17 06:11:31;;;;;;;;;;;22.40;56.40;;;;;;5068667;28;20083;-60
2023/09/17 06:13:57;;;;;;;;;;;22.40;56.40;;;;;;5064034;28;20019;-59
2023/09/17 06:16:24;;;;;;;;;;;22.40;56.50;;;;;;5073840;28;20198;-59
2023/09/17 06:18:51;;;;;;;;;;;22.40;56.40;;;;;;5075846;28;19955;-59
2023/09/17 06:21:20;;;;;;;;;;;22.30;56.40;;;;;;5075052;28;20035;-59
2023/09/17 06:23:46;;;;;;;;;;;22.40;56.50;;;;;;5062575;28;19924;-59
2023/09/17 06:26:13;;;;;;;;;;;22.40;56.40;;;;;;5063102;28;19929;-59
2023/09/17 06:28:40;;;;;;;;;;;22.40;56.40;;;;;;5074535;28;19938;-59
2023/09/17 06:31:07;;;;;;;;;;;22.40;56.40;;;;;;5076254;28;19920;-59
2023/09/17 06:33:34;;;;;;;;;;;22.40;56.40;;;;;;5066240;28;20299;-60
2023/09/17 06:36:01;;;;;;;;;;;22.40;56.50;;;;;;5057256;28;19925;-59
2023/09/17 06:38:30;;;;;;;;;;;22.40;56.50;;;;;;5077237;28;20401;-60
2023/09/17 06:40:56;;;;;;;;;;;22.40;56.50;;;;;;5055918;28;19928;-59
2023/09/17 06:43:23;;;;;;;;;;;22.40;56.50;;;;;;5065793;28;19928;-59
2023/09/17 06:45:50;;;;;;;;;;;22.40;56.50;;;;;;5060940;28;19936;-59
2023/09/17 06:48:17;;;;;;;;;;;22.40;56.50;;;;;;5057108;28;19970;-60
2023/09/17 06:50:45;;;;;;;;;;;22.40;56.50;;;;;;5059113;28;19940;-59
2023/09/17 06:53:11;;;;;;;;;;;22.40;56.60;;;;;;5056819;28;19925;-59
2023/09/17 06:55:40;;;;;;;;;;;22.40;56.60;;;;;;5059805;28;19924;-60
2023/09/17 06:58:07;;;;;;;;;;;22.40;56.70;;;;;;5062354;28;19921;-59
2023/09/17 07:00:33;;;;;;;;;;;22.40;56.60;;;;;;5072491;28;19928;-59
2023/09/17 07:03:00;;;;;;;;;;;22.40;56.60;;;;;;5072205;28;20025;-59
2023/09/17 07:05:27;;;;;;;;;;;22.40;56.70;;;;;;5074333;28;19924;-59
2023/09/17 07:07:55;;;;;;;;;;;22.40;56.70;;;;;;5081465;28;19928;-59
2023/09/17 07:10:21;;;;;;;;;;;22.40;56.80;;;;;;5073128;28;19931;-60
2023/09/17 07:12:50;;;;;;;;;;;22.40;56.80;;;;;;5073812;28;19974;-60
2023/09/17 07:15:18;;;;;;;;;;;22.40;56.80;;;;;;5093525;28;19924;-59
2023/09/17 07:17:44;;;;;;;;;;;22.40;56.70;;;;;;5069688;28;19931;-59
2023/09/17 07:20:13;;;;;;;;;;;22.40;56.70;;;;;;5071771;28;19924;-60
2023/09/17 07:22:39;;;;;;;;;;;22.40;56.70;;;;;;5092490;28;19974;-60
2023/09/17 07:25:06;;;;;;;;;;;22.40;56.70;;;;;;5086862;28;19991;-59
2023/09/17 07:27:33;;;;;;;;;;;22.40;56.70;;;;;;5072684;28;19929;-60
2023/09/17 07:30:02;;;;;;;;;;;22.40;56.80;;;;;;5072406;28;20297;-60
2023/09/17 07:32:29;;;;;;;;;;;22.40;56.80;;;;;;5069314;28;20259;-60
2023/09/17 07:34:56;;;;;;;;;;;22.40;56.80;;;;;;5073439;28;19930;-60
2023/09/17 07:37:23;;;;;;;;;;;22.40;56.90;;;;;;5062609;28;19962;-60
2023/09/17 07:39:53;;;;;;;;;;;22.40;57.20;;;;;;5091425;28;20042;-60
2023/09/17 07:42:20;;;;;;;;;;;22.40;56.90;;;;;;5085019;28;20023;-59
2023/09/17 07:44:47;;;;;;;;;;;22.40;56.90;;;;;;5076306;28;20330;-59
2023/09/17 07:47:17;;;;;;;;;;;22.40;56.90;;;;;;5081432;28;20031;-60
2023/09/17 07:49:43;;;;;;;;;;;22.40;56.80;;;;;;5072378;28;19986;-60
2023/09/17 07:52:10;;;;;;;;;;;22.40;57.40;;;;;;5078910;28;19931;-60
2023/09/17 07:54:37;;;;;;;;;;;22.40;56.90;;;;;;5070062;28;19931;-60
2023/09/17 07:57:05;;;;;;;;;;;22.40;56.80;;;;;;5071477;28;19929;-60
2023/09/17 07:59:31;;;;;;;;;;;22.40;56.80;;;;;;5074337;28;19979;-60
2023/09/17 08:01:58;;;;;;;;;;;22.40;56.80;;;;;;5055008;28;19978;-60
2023/09/17 08:04:27;;;;;;;;;;;22.40;56.80;;;;;;5069968;28;19932;-60
2023/09/17 08:06:53;;;;;;;;;;;22.40;56.80;;;;;;5051766;28;19959;-60
2023/09/17 08:09:20;;;;;;;;;;;22.40;56.80;;;;;;5044513;28;19924;-60
2023/09/17 08:11:47;;;;;;;;;;;22.40;56.80;;;;;;5058825;28;19979;-60
2023/09/17 08:14:14;;;;;;;;;;;22.40;56.80;;;;;;5078540;28;19931;-60
2023/09/17 08:16:41;;;;;;;;;;;22.40;56.90;;;;;;5057159;28;19931;-60
2023/09/17 08:19:08;;;;;;;;;;;22.40;56.90;;;;;;5071331;28;20341;-60
2023/09/17 08:21:37;;;;;;;;;;;22.40;56.90;;;;;;5049640;28;19928;-60
2023/09/17 08:24:04;;;;;;;;;;;22.40;56.80;;;;;;5056063;28;19954;-60
2023/09/17 08:26:30;;;;;;;;;;;22.40;56.90;;;;;;5061762;28;19958;-60
2023/09/17 08:28:58;;;;;;;;;;;22.40;56.80;;;;;;5072111;28;19970;-60
2023/09/17 08:31:25;;;;;;;;;;;22.40;56.80;;;;;;5057400;28;19947;-61
2023/09/17 08:33:52;;;;;;;;;;;22.40;56.80;;;;;;5058334;28;19933;-59
2023/09/17 08:36:21;;;;;;;;;;;22.40;56.80;;;;;;5057995;28;19925;-59
2023/09/17 08:38:49;;;;;;;;;;;22.40;56.80;;;;;;5071762;28;19929;-59
2023/09/17 08:41:16;;;;;;;;;;;22.40;56.80;;;;;;5080673;28;19924;-59
2023/09/17 08:43:43;;;;;;;;;;;22.40;56.80;;;;;;5057773;28;20603;-59
2023/09/17 08:46:10;;;;;;;;;;;22.40;56.90;;;;;;5063757;28;19928;-59
2023/09/17 08:48:37;;;;;;;;;;;22.40;57.10;;;;;;5071907;28;19932;-59
2023/09/17 08:51:03;;;;;;;;;;;22.40;57.60;;;;;;5071839;28;20336;-59
2023/09/17 08:53:32;;;;;;;;;;;22.40;57.70;;;;;;5070900;28;19928;-59
2023/09/17 08:56:00;;;;;;;;;;;22.50;58.10;;;;;;5071395;28;19924;-59
2023/09/17 08:58:27;;;;;;;;;;;22.40;58.20;;;;;;5064766;28;19931;-59
2023/09/17 09:00:55;;;;;;;;;;;22.40;58.50;;;;;;5070687;28;19924;-59
2023/09/17 09:03:22;;;;;;;;;;;22.40;58.50;;;;;;5071723;28;19924;-59
2023/09/17 09:05:50;;;;;;;;;;;22.40;58.60;;;;;;5078082;28;19928;-59
2023/09/17 09:08:17;;;;;;;;;;;22.40;58.70;;;;;;5071655;28;19924;-59
2023/09/17 09:10:44;;;;;;;;;;;22.40;58.80;;;;;;5072410;28;19982;-59
2023/09/17 09:13:12;;;;;;;;;;;22.40;58.90;;;;;;5076972;28;19929;-59
2023/09/17 09:15:39;;;;;;;;;;;22.30;59.00;;;;;;5085388;28;19928;-59
2023/09/17 09:18:06;;;;;;;;;;;22.30;59.00;;;;;;5075668;28;19982;-60
2023/09/17 09:20:32;;;;;;;;;;;22.30;59.20;;;;;;5073975;28;19978;-59
2023/09/17 09:22:59;;;;;;;;;;;22.30;59.40;;;;;;5075740;28;19978;-59
2023/09/17 09:25:26;;;;;;;;;;;22.30;59.50;;;;;;5077985;28;19924;-59
2023/09/17 09:27:53;;;;;;;;;;;22.30;59.60;;;;;;5072939;28;20267;-59
2023/09/17 09:30:21;;;;;;;;;;;22.30;59.60;;;;;;5075608;28;19925;-59
2023/09/17 09:32:48;;;;;;;;;;;22.30;59.60;;;;;;5078347;28;20378;-59
2023/09/17 09:35:15;;;;;;;;;;;22.20;59.60;;;;;;5083742;28;19979;-59
2023/09/17 09:37:42;;;;;;;;;;;22.20;59.60;;;;;;5095645;28;19985;-59
2023/09/17 09:40:10;;;;;;;;;;;22.20;59.70;;;;;;5074384;28;20263;-59
2023/09/17 09:42:36;;;;;;;;;;;22.20;59.80;;;;;;5080010;28;19925;-59
2023/09/17 09:45:03;;;;;;;;;;;22.20;60.00;;;;;;5076586;28;19931;-59
2023/09/17 09:47:31;;;;;;;;;;;22.20;60.00;;;;;;5080535;28;19981;-59
2023/09/17 09:50:00;;;;;;;;;;;22.20;60.70;;;;;;5104871;28;19925;-60
2023/09/17 09:52:27;;;;;;;;;;;22.20;60.10;;;;;;5079500;28;19931;-59
2023/09/17 09:54:54;;;;;;;;;;;22.20;60.20;;;;;;5083229;28;19970;-59
2023/09/17 09:57:24;;;;;;;;;;;22.20;60.30;;;;;;5082411;28;20328;-59
2023/09/17 09:59:51;;;;;;;;;;;22.20;60.30;;;;;;5078890;28;20056;-59
2023/09/17 10:02:20;;;;;;;;;;;22.20;60.20;;;;;;5105985;28;19928;-59
2023/09/17 10:04:48;;;;;;;;;;;22.20;60.30;;;;;;5078595;28;19924;-59
2023/09/17 10:07:15;;;;;;;;;;;22.20;60.60;;;;;;5078309;28;20668;-59
2023/09/17 10:09:42;;;;;;;;;;;22.20;60.70;;;;;;5074406;28;19972;-59
2023/09/17 10:12:09;;;;;;;;;;;22.20;60.90;;;;;;5081298;28;19924;-59
2023/09/17 10:14:36;;;;;;;;;;;22.30;61.00;;;;;;5074288;28;19924;-59
2023/09/17 10:17:03;;;;;;;;;;;22.30;61.30;;;;;;5078853;28;19930;-59
2023/09/17 10:19:30;;;;;;;;;;;22.20;61.20;;;;;;5080746;28;19928;-60
2023/09/17 10:21:59;;;;;;;;;;;22.30;61.40;;;;;;5090217;28;20023;-60
2023/09/17 10:24:25;;;;;;;;;;;22.30;61.60;;;;;;5091839;28;19924;-60
2023/09/17 10:26:52;;;;;;;;;;;22.30;61.80;;;;;;5073162;28;20021;-60
2023/09/17 10:29:19;;;;;;;;;;;22.30;61.90;;;;;;5071229;28;20292;-60
2023/09/17 10:31:46;;;;;;;;;;;22.20;61.80;;;;;;5089327;28;20364;-60
2023/09/17 10:34:13;;;;;;;;;;;22.30;62.00;;;;;;5075326;28;20266;-60
2023/09/17 10:36:40;;;;;;;;;;;22.30;62.00;;;;;;5075555;28;19925;-61
2023/09/17 10:39:09;;;;;;;;;;;22.30;62.10;;;;;;5076051;28;19928;-60
2023/09/17 10:41:37;;;;;;;;;;;22.30;62.00;;;;;;5095287;28;19962;-60
2023/09/17 10:44:04;;;;;;;;;;;22.30;62.00;;;;;;5058074;28;19956;-60
2023/09/17 10:46:31;;;;;;;;;;;22.30;62.30;;;;;;5073274;28;19934;-60
2023/09/17 10:48:58;;;;;;;;;;;22.30;62.20;;;;;;5090307;28;20421;-60
2023/09/17 10:51:25;;;;;;;;;;;22.30;62.30;;;;;;5076717;28;19928;-60
2023/09/17 10:53:52;;;;;;;;;;;22.30;62.10;;;;;;5075046;28;19933;-60
2023/09/17 10:56:20;;;;;;;;;;;22.30;62.20;;;;;;5076395;28;19931;-60
2023/09/17 10:58:49;;;;;;;;;;;22.30;62.10;;;;;;5071924;28;19924;-60
2023/09/17 11:01:16;;;;;;;;;;;22.30;62.10;;;;;;5070272;28;19971;-60
2023/09/17 11:03:44;;;;;;;;;;;22.30;62.10;;;;;;5077836;28;19938;-60
2023/09/17 11:06:16;;;;;;;;;;;22.30;62.30;;;;;;5074744;28;19974;-60
2023/09/17 11:08:43;;;;;;;;;;;22.30;62.20;;;;;;5071212;28;19989;-60
2023/09/17 11:11:12;;;;;;;;;;;22.30;62.20;;;;;;5077619;28;19924;-60
2023/09/17 11:13:40;;;;;;;;;;;22.30;62.10;;;;;;5065720;28;19924;-60
2023/09/17 11:16:07;;;;;;;;;;;22.30;62.10;;;;;;5086478;28;19924;-59
2023/09/17 11:18:34;;;;;;;;;;;22.30;62.00;;;;;;5092212;28;19924;-60
2023/09/17 11:21:04;;;;;;;;;;;22.40;61.90;;;;;;5069815;28;19943;-60
2023/09/17 11:23:38;;;;;;;;;;;22.40;61.60;;;;;;5087790;28;19947;-61
2023/09/17 11:26:05;;;;;;;;;;;22.40;61.50;;;;;;5070210;28;19955;-60
2023/09/17 11:28:34;;;;;;;;;;;22.40;61.30;;;;;;5088303;28;19974;-60
2023/09/17 11:31:03;;;;;;;;;;;22.40;61.10;;;;;;5069767;28;19929;-60
2023/09/17 11:33:30;;;;;;;;;;;22.40;60.90;;;;;;5072515;28;19932;-60
2023/09/17 11:35:57;;;;;;;;;;;22.40;60.80;;;;;;5070112;28;19947;-60
2023/09/17 11:38:24;;;;;;;;;;;22.40;60.60;;;;;;5070570;28;19924;-60
2023/09/17 11:41:04;;;;;;;;;;;22.40;60.70;;;;;;5069666;28;19928;-60
2023/09/17 11:43:31;;;;;;;;;;;22.40;60.80;;;;;;5072604;28;19944;-60
2023/09/17 11:45:58;;;;;;;;;;;22.40;60.60;;;;;;5073557;28;19932;-60
2023/09/17 11:48:27;;;;;;;;;;;22.40;60.50;;;;;;5095195;28;19934;-60
2023/09/17 11:50:54;;;;;;;;;;;22.40;60.50;;;;;;5075465;28;19925;-60
2023/09/17 11:53:21;;;;;;;;;;;22.40;60.50;;;;;;5089587;28;19950;-60
2023/09/17 11:55:51;;;;;;;;;;;22.50;60.50;;;;;;5071207;28;19924;-60
2023/09/17 11:58:18;;;;;;;;;;;22.50;60.50;;;;;;5070034;28;19978;-60
2023/09/17 12:00:45;;;;;;;;;;;22.40;60.30;;;;;;5071313;28;19930;-60
2023/09/17 12:03:12;;;;;;;;;;;22.50;60.40;;;;;;5102684;28;19946;-60
2023/09/17 12:05:40;;;;;;;;;;;22.50;61.10;;;;;;5070163;28;19925;-60
2023/09/17 12:08:07;;;;;;;;;;;22.50;60.30;;;;;;5082922;28;20004;-60
2023/09/17 12:10:37;;;;;;;;;;;22.50;60.40;;;;;;5069219;28;19932;-60
2023/09/17 12:13:04;;;;;;;;;;;22.50;60.30;;;;;;5069859;28;20032;-60
2023/09/17 12:15:31;;;;;;;;;;;22.50;60.40;;;;;;5073014;28;19924;-60
2023/09/17 12:17:59;;;;;;;;;;;22.50;60.30;;;;;;5069459;28;20023;-60
2023/09/17 12:20:40;;;;;;;;;;;22.50;60.30;;;;;;5069568;28;19933;-60
2023/09/17 12:23:15;;;;;;;;;;;22.50;60.30;;;;;;5069583;28;19925;-60
2023/09/17 12:25:44;;;;;;;;;;;22.60;60.50;;;;;;5067364;28;19924;-60
2023/09/17 12:28:11;;;;;;;;;;;22.60;60.50;;;;;;5076134;28;19946;-60
2023/09/17 12:30:38;;;;;;;;;;;22.60;60.50;;;;;;5070769;28;20385;-60
2023/09/17 12:33:05;;;;;;;;;;;22.60;60.50;;;;;;5071102;28;19920;-60
2023/09/17 12:35:32;;;;;;;;;;;22.60;60.50;;;;;;5069668;28;19933;-60
2023/09/17 12:37:59;;;;;;;;;;;22.60;60.50;;;;;;5103478;28;20247;-60
2023/09/17 12:40:27;;;;;;;;;;;22.60;60.40;;;;;;5069639;28;19956;-60
2023/09/17 12:42:55;;;;;;;;;;;22.60;60.50;;;;;;5069969;28;19928;-60
2023/09/17 12:45:23;;;;;;;;;;;22.60;60.40;;;;;;5071700;28;19928;-60
2023/09/17 12:47:50;;;;;;;;;;;22.60;60.40;;;;;;5073526;28;19955;-60
2023/09/17 12:50:18;;;;;;;;;;;22.60;60.40;;;;;;5071514;28;19932;-60
2023/09/17 12:52:44;;;;;;;;;;;22.60;60.50;;;;;;5101314;28;19932;-60
2023/09/17 12:55:11;;;;;;;;;;;22.60;60.60;;;;;;5091268;28;19928;-60
2023/09/17 12:57:39;;;;;;;;;;;22.60;60.60;;;;;;5078179;28;19924;-60
2023/09/17 13:00:07;;;;;;;;;;;22.70;60.60;;;;;;5079328;28;19929;-60
2023/09/17 13:02:35;;;;;;;;;;;22.70;60.60;;;;;;5080214;28;19963;-60
2023/09/17 13:05:02;;;;;;;;;;;22.60;60.50;;;;;;5075431;28;19928;-60
2023/09/17 13:07:30;;;;;;;;;;;22.70;60.60;;;;;;5077511;28;19931;-60
2023/09/17 13:09:57;;;;;;;;;;;22.70;60.60;;;;;;5078175;28;19924;-60
2023/09/17 13:12:24;;;;;;;;;;;22.70;60.60;;;;;;5080811;28;20506;-60
2023/09/17 13:14:52;;;;;;;;;;;22.60;60.50;;;;;;5090910;28;19956;-60
2023/09/17 13:17:19;;;;;;;;;;;22.70;60.70;;;;;;5093942;28;20443;-60
2023/09/17 13:19:46;;;;;;;;;;;22.70;60.70;;;;;;5074052;28;19930;-60
2023/09/17 13:22:14;;;;;;;;;;;22.70;60.80;;;;;;5075055;28;19932;-60
2023/09/17 13:24:41;;;;;;;;;;;22.70;60.70;;;;;;5101421;28;19924;-61
2023/09/17 13:27:08;;;;;;;;;;;22.70;60.90;;;;;;5080836;28;19924;-60
2023/09/17 13:29:36;;;;;;;;;;;22.70;61.20;;;;;;5095861;28;19924;-61
2023/09/17 13:32:04;;;;;;;;;;;22.70;61.30;;;;;;5082491;28;19924;-61
2023/09/17 13:34:31;;;;;;;;;;;22.70;61.50;;;;;;5076012;28;19977;-62
2023/09/17 13:36:58;;;;;;;;;;;22.70;61.50;;;;;;5077289;28;19931;-61
2023/09/17 13:39:25;;;;;;;;;;;22.80;61.60;;;;;;5077441;28;19932;-60
2023/09/17 13:41:54;;;;;;;;;;;22.80;61.50;;;;;;5089226;28;19931;-60
2023/09/17 13:44:21;;;;;;;;;;;22.80;61.40;;;;;;5072690;28;19924;-60
2023/09/17 13:46:49;;;;;;;;;;;22.80;61.40;;;;;;5085556;28;19924;-61
2023/09/17 13:49:17;;;;;;;;;;;22.70;61.60;;;;;;5084451;28;19935;-61
2023/09/17 13:51:44;;;;;;;;;;;22.80;61.90;;;;;;5075309;28;19965;-60
2023/09/17 13:54:11;;;;;;;;;;;22.80;62.30;;;;;;5075905;28;19928;-61
2023/09/17 13:56:38;;;;;;;;;;;22.80;62.60;;;;;;5073858;28;19935;-60
2023/09/17 13:59:05;;;;;;;;;;;22.80;63.00;;;;;;5083802;28;19981;-60
2023/09/17 14:01:31;;;;;;;;;;;22.80;63.00;;;;;;5077295;28;19935;-61
2023/09/17 14:03:58;;;;;;;;;;;22.80;63.00;;;;;;5064428;28;19924;-60
2023/09/17 14:06:26;;;;;;;;;;;22.80;63.20;;;;;;5084650;28;19977;-60
2023/09/17 14:08:53;;;;;;;;;;;22.70;63.20;;;;;;5065024;28;20421;-61
2023/09/17 14:11:24;;;;;;;;;;;22.70;63.20;;;;;;5060314;28;19964;-61
2023/09/17 14:13:50;;;;;;;;;;;22.70;63.30;;;;;;5071808;28;19925;-60
2023/09/17 14:16:17;;;;;;;;;;;22.80;63.40;;;;;;5059173;28;19920;-61